Terminal Aerodrome Forecast
Issued by NWS

Home | Current Version | Previous Version | Text Only | Print | Product List | Glossary On
Versions: 1 2 3 4 5 6 7 8 9 10 11 12 13 14 15 16 17 18
907
FTUS41 KPBZ 231720
TAFZZV
TAF
KZZV 231720Z 2318/2418 11006KT P6SM SKC
     FM240200 14005KT P6SM BKN120
     FM240800 17008KT P6SM VCSH OVC060 WS020/21040KT
     FM241300 19009G18KT P6SM BKN060=

USA.gov is the U.S. government's official web portal to all federal, state and local government web resources and services.